createdAt,value
2023-10-04T00:00:48.570Z,99.71
2023-10-04T00:01:48.567Z,99.99
2023-10-04T00:02:48.628Z,99.91
2023-10-04T00:03:48.794Z,99.91
2023-10-04T00:04:48.602Z,99.99
2023-10-04T00:05:48.542Z,99.99
2023-10-04T00:06:48.506Z,99.91
2023-10-04T00:07:48.494Z,99.61
2023-10-04T00:08:48.476Z,97.37
2023-10-04T00:09:48.496Z,97.57
2023-10-04T00:10:48.452Z,98.49
2023-10-04T00:11:48.502Z,98.69
2023-10-04T00:12:48.436Z,99.99
2023-10-04T00:13:48.449Z,99.99
2023-10-04T00:14:48.401Z,99.99
2023-10-04T00:15:48.424Z,99.99
2023-10-04T00:16:48.392Z,99.99
2023-10-04T00:17:48.497Z,99.81
2023-10-04T00:18:48.399Z,99.99
2023-10-04T00:19:48.374Z,99.99
2023-10-04T00:20:48.354Z,99.99
2023-10-04T00:21:48.357Z,99.99
2023-10-04T00:22:48.331Z,99.99
2023-10-04T00:23:48.356Z,99.35
2023-10-04T00:24:48.314Z,99.99
2023-10-04T00:25:48.299Z,99.99
2023-10-04T00:26:48.279Z,99.99
2023-10-04T00:27:48.289Z,99.99
2023-10-04T00:28:48.262Z,99.99
2023-10-04T00:29:48.308Z,99.99
2023-10-04T00:30:48.242Z,99.99
2023-10-04T00:31:48.268Z,99.99
2023-10-04T00:32:48.684Z,99.66
2023-10-04T00:33:48.260Z,99.99
2023-10-04T00:34:48.209Z,99.99
2023-10-04T00:35:48.239Z,99.99
2023-10-04T00:36:48.170Z,99.99
2023-10-04T00:37:48.172Z,98.84
2023-10-04T00:38:48.193Z,99.99
2023-10-04T00:39:48.152Z,99.99
2023-10-04T00:40:48.125Z,99.99
2023-10-04T00:41:48.129Z,99.99
2023-10-04T00:42:48.112Z,99.99
2023-10-04T00:43:48.125Z,99.99
2023-10-04T00:44:48.108Z,99.99
2023-10-04T00:45:48.110Z,99.99
2023-10-04T00:46:48.062Z,99.99
2023-10-04T00:47:48.114Z,99.99
2023-10-04T00:48:48.120Z,99.99
2023-10-04T00:49:48.084Z,99.99
2023-10-04T00:50:48.053Z,99.99
2023-10-04T00:51:48.027Z,99.99
2023-10-04T00:52:48.022Z,99.99
2023-10-04T00:53:48.015Z,99.99
2023-10-04T00:54:47.988Z,99.99
2023-10-04T00:55:47.985Z,99.99
2023-10-04T00:56:47.981Z,99.99
2023-10-04T00:57:47.962Z,99.99
2023-10-04T00:58:47.951Z,99.99
2023-10-04T00:59:47.953Z,99.99
2023-10-04T01:00:47.917Z,99.99
2023-10-04T01:01:47.946Z,99.99
2023-10-04T01:02:47.967Z,99.99
2023-10-04T01:03:48.049Z,99.99
2023-10-04T01:04:47.881Z,99.99
2023-10-04T01:05:47.944Z,99.99
2023-10-04T01:06:47.854Z,99.99
2023-10-04T01:07:47.848Z,99.99
2023-10-04T01:08:47.850Z,99.99
2023-10-04T01:09:47.845Z,99.99
2023-10-04T01:10:47.811Z,99.99
2023-10-04T01:11:47.828Z,99.99
2023-10-04T01:12:47.805Z,99.99
2023-10-04T01:13:47.794Z,99.99
2023-10-04T01:14:47.804Z,99.99
2023-10-04T01:15:47.775Z,99.99
2023-10-04T01:16:48.324Z,99.99
2023-10-04T01:17:47.783Z,99.99
2023-10-04T01:18:47.751Z,99.99
2023-10-04T01:19:47.814Z,99.99
2023-10-04T01:20:47.863Z,99.99
2023-10-04T01:21:47.706Z,99.99
2023-10-04T01:22:47.685Z,99.99
2023-10-04T01:23:47.707Z,99.99
2023-10-04T01:24:47.663Z,99.99
2023-10-04T01:25:47.914Z,99.99
2023-10-04T01:26:47.679Z,99.99
2023-10-04T01:27:47.672Z,99.99
2023-10-04T01:28:47.667Z,99.99
2023-10-04T01:29:47.632Z,99.99
2023-10-04T06:00:46.360Z,99.99
2023-10-04T06:01:47.244Z,99.99
2023-10-04T06:02:47.260Z,99.99
2023-10-04T06:03:47.355Z,99.99
2023-10-04T06:04:47.280Z,99.99
2023-10-04T06:05:47.202Z,99.99
2023-10-04T06:06:47.283Z,99.99
2023-10-04T06:07:47.146Z,99.99
2023-10-04T06:08:47.292Z,99.99
2023-10-04T06:09:47.143Z,99.99
2023-10-04T06:10:47.133Z,99.99
2023-10-04T06:11:47.122Z,99.99
2023-10-04T06:12:47.144Z,99.99
2023-10-04T06:13:47.074Z,99.99
2023-10-04T06:14:47.083Z,99.99
2023-10-04T06:15:47.090Z,99.99
2023-10-04T06:16:47.073Z,99.99
2023-10-04T06:17:47.095Z,99.99
2023-10-04T06:18:47.088Z,99.99
2023-10-04T06:19:47.053Z,99.99
2023-10-04T06:20:47.155Z,99.99
2023-10-04T06:21:47.008Z,99.99
2023-10-04T06:22:46.998Z,99.99
2023-10-04T06:23:46.979Z,99.99
2023-10-04T06:24:47.064Z,99.99
2023-10-04T06:25:46.966Z,99.99
2023-10-04T06:26:47.061Z,99.99
2023-10-04T06:27:46.954Z,99.99
2023-10-04T06:28:46.943Z,99.99
2023-10-04T06:29:46.898Z,99.99
2023-10-04T06:30:47.043Z,99.99
2023-10-04T06:31:46.912Z,99.99
2023-10-04T06:32:46.947Z,99.99
2023-10-04T06:33:46.889Z,99.99
2023-10-04T06:34:46.879Z,99.99
2023-10-04T06:35:46.870Z,99.99
2023-10-04T06:36:46.876Z,99.99
2023-10-04T06:37:46.862Z,99.99
2023-10-04T06:38:46.876Z,99.99
2023-10-04T06:39:46.851Z,99.99
2023-10-04T06:40:46.797Z,99.99
2023-10-04T06:41:46.781Z,99.99
2023-10-04T06:42:46.840Z,99.99
2023-10-04T06:43:46.744Z,99.99
2023-10-04T06:44:46.773Z,99.99
2023-10-04T06:45:46.816Z,99.99
2023-10-04T06:46:46.781Z,99.99
2023-10-04T06:47:46.750Z,99.99
2023-10-04T06:48:46.711Z,99.99
2023-10-04T06:49:46.690Z,99.99
2023-10-04T06:50:46.778Z,99.99
2023-10-04T06:51:46.714Z,99.99
2023-10-04T06:52:46.672Z,99.99
2023-10-04T06:53:46.646Z,99.99
2023-10-04T06:54:46.715Z,99.99
2023-10-04T06:55:46.624Z,99.99
2023-10-04T06:56:46.648Z,99.99
2023-10-04T06:57:46.671Z,99.99
2023-10-04T06:58:46.607Z,99.99
2023-10-04T06:59:46.591Z,99.99
2023-10-04T07:00:46.636Z,99.99
2023-10-04T07:01:46.577Z,99.99
2023-10-04T07:02:46.586Z,99.99
2023-10-04T07:03:46.585Z,99.99
2023-10-04T07:04:46.547Z,99.99
2023-10-04T07:05:46.512Z,99.99
2023-10-04T07:06:46.564Z,99.99
2023-10-04T07:07:46.492Z,99.99
2023-10-04T07:08:46.492Z,99.99
2023-10-04T07:09:46.553Z,99.99
2023-10-04T07:12:02.870Z,99.99
2023-10-04T07:13:03.827Z,99.99
2023-10-04T07:14:03.745Z,99.99
2023-10-04T07:15:03.725Z,99.99
2023-10-04T07:16:03.788Z,99.99
2023-10-04T07:17:03.726Z,99.99
2023-10-04T07:18:03.748Z,99.99
2023-10-04T07:19:04.024Z,99.99
2023-10-04T07:20:03.687Z,99.99
2023-10-04T07:21:09.741Z,99.99
2023-10-04T07:22:03.642Z,99.99
2023-10-04T07:23:03.724Z,99.99
2023-10-04T07:24:03.854Z,99.99
2023-10-04T07:25:03.650Z,99.99
2023-10-04T07:26:03.590Z,99.99
2023-10-04T07:27:03.633Z,99.99
2023-10-04T07:28:03.573Z,99.99
2023-10-04T07:29:03.832Z,99.99
2023-10-04T07:30:03.562Z,99.99
2023-10-04T07:31:03.798Z,99.99
2023-10-04T07:32:03.709Z,99.99
2023-10-04T07:33:03.566Z,99.99
2023-10-04T07:34:03.886Z,99.99
2023-10-04T07:35:03.556Z,99.99
2023-10-04T07:36:03.488Z,99.99
2023-10-04T07:37:03.481Z,99.99
2023-10-04T07:38:03.714Z,99.99
2023-10-04T07:39:03.454Z,99.99
2023-10-04T07:40:03.453Z,99.99
2023-10-04T07:41:03.636Z,99.99
2023-10-04T07:42:03.464Z,99.99
2023-10-04T07:43:04.164Z,99.59
2023-10-04T07:44:03.682Z,99.90
2023-10-04T07:45:03.417Z,99.59
2023-10-04T07:46:03.555Z,99.99
2023-10-04T07:47:03.418Z,99.08
2023-10-04T07:48:03.620Z,99.49
2023-10-04T07:49:03.363Z,99.99
2023-10-04T07:50:03.357Z,99.99
2023-10-04T07:51:03.347Z,99.99
2023-10-04T07:52:03.304Z,99.99
2023-10-04T07:53:03.337Z,99.99
2023-10-04T07:54:03.422Z,99.95
2023-10-04T07:55:03.295Z,99.54
2023-10-04T07:56:03.294Z,99.34
2023-10-04T07:57:03.266Z,99.99
2023-10-04T07:58:03.245Z,99.34
2023-10-04T07:59:03.268Z,99.44
2023-10-04T08:00:03.225Z,99.99
2023-10-04T08:01:03.299Z,99.04
2023-10-04T08:02:03.208Z,99.99
2023-10-04T08:03:03.253Z,99.99
2023-10-04T08:04:03.419Z,99.99
2023-10-04T08:05:03.193Z,99.99
2023-10-04T08:06:03.180Z,99.24
2023-10-04T08:07:03.231Z,98.93
2023-10-04T08:08:05.484Z,99.99
2023-10-04T08:09:03.150Z,98.79
2023-10-04T08:10:03.132Z,98.58
2023-10-04T08:11:03.161Z,98.68
2023-10-04T08:12:03.095Z,98.38
2023-10-04T08:13:03.100Z,98.79
2023-10-04T08:14:03.319Z,99.80
2023-10-04T08:15:03.078Z,98.68
2023-10-04T08:16:03.208Z,97.56
2023-10-04T08:17:03.155Z,98.89
2023-10-04T08:18:03.223Z,98.48
2023-10-04T08:19:03.131Z,97.77
2023-10-04T08:20:04.171Z,99.19
2023-10-04T08:21:03.054Z,98.68
2023-10-04T08:22:03.026Z,98.07
2023-10-04T08:23:03.049Z,98.38
2023-10-04T08:24:03.258Z,97.46
2023-10-04T08:25:02.973Z,98.27
2023-10-04T08:26:02.953Z,97.87
2023-10-04T08:27:02.966Z,97.92
2023-10-04T08:28:02.985Z,97.62
2023-10-04T08:29:03.109Z,96.91
2023-10-04T08:30:03.246Z,97.92
2023-10-04T08:31:03.010Z,96.60
2023-10-04T08:32:03.020Z,97.72
2023-10-04T08:33:02.934Z,97.00
2023-10-04T08:34:03.150Z,97.92
2023-10-04T08:35:02.898Z,97.21
2023-10-04T08:36:02.847Z,96.09
2023-10-04T08:37:02.853Z,96.50
2023-10-04T08:38:02.858Z,97.72
2023-10-04T08:39:02.825Z,96.80
2023-10-04T08:40:02.816Z,98.49
2023-10-04T08:41:02.810Z,96.50
2023-10-04T08:42:02.781Z,97.98
2023-10-04T08:43:02.786Z,97.47
2023-10-04T08:44:03.119Z,96.86
2023-10-04T08:45:02.755Z,95.74
2023-10-04T08:46:02.818Z,98.69
2023-10-04T08:47:02.783Z,97.47
2023-10-04T08:48:02.850Z,97.27
2023-10-04T08:49:02.830Z,97.67
2023-10-04T08:50:02.705Z,98.28
2023-10-04T08:51:02.726Z,95.84
2023-10-04T08:52:02.720Z,96.86
2023-10-04T08:53:02.717Z,97.57
2023-10-04T08:54:02.655Z,96.35
2023-10-04T08:55:02.662Z,96.55
2023-10-04T08:56:02.702Z,97.47
2023-10-04T08:57:02.639Z,97.27
2023-10-04T08:58:02.631Z,96.55
2023-10-04T08:59:02.657Z,96.41
2023-10-04T09:00:11.327Z,96.51
2023-10-04T09:01:02.791Z,97.22
2023-10-04T09:02:02.597Z,96.61
2023-10-04T09:03:02.744Z,96.61
2023-10-04T09:04:02.690Z,97.63
2023-10-04T09:05:02.613Z,96.51
2023-10-04T09:06:02.529Z,97.63
2023-10-04T09:07:02.520Z,95.79
2023-10-04T09:08:02.525Z,94.07
2023-10-04T09:09:02.501Z,94.57
2023-10-04T09:10:02.484Z,96.00
2023-10-04T09:11:02.505Z,95.29
2023-10-04T09:12:02.451Z,95.69
2023-10-04T09:13:02.487Z,95.49
2023-10-04T09:14:02.512Z,94.88
2023-10-04T09:15:02.518Z,95.69
2023-10-04T09:16:02.582Z,96.06
2023-10-04T09:17:02.440Z,95.75
2023-10-04T09:18:02.439Z,97.28
2023-10-04T09:19:02.394Z,95.14
2023-10-04T09:20:02.376Z,94.23
2023-10-04T09:21:02.371Z,93.82
2023-10-04T09:22:02.371Z,94.23
2023-10-04T09:23:02.373Z,94.84
2023-10-04T09:24:02.576Z,94.32
2023-10-04T09:25:02.411Z,93.21
2023-10-04T09:26:02.300Z,93.51
2023-10-04T09:27:02.307Z,96.31
2023-10-04T09:28:02.292Z,94.38
2023-10-04T09:29:02.294Z,94.28
2023-10-04T09:30:02.262Z,92.86
2023-10-04T09:31:02.364Z,92.25
2023-10-04T09:32:02.250Z,92.86
2023-10-04T09:33:02.287Z,94.69
2023-10-04T09:34:02.321Z,94.59
2023-10-04T09:35:02.221Z,92.86
2023-10-04T09:36:02.221Z,94.48
2023-10-04T09:37:02.271Z,96.72
2023-10-04T09:38:02.202Z,93.98
2023-10-04T09:39:02.189Z,95.00
2023-10-04T09:40:02.158Z,93.57
2023-10-04T09:41:02.164Z,92.86
2023-10-04T09:42:02.130Z,93.47
2023-10-04T09:43:02.168Z,95.09
2023-10-04T09:44:02.320Z,93.73
2023-10-04T09:45:02.112Z,93.63
2023-10-04T09:46:02.141Z,92.91
2023-10-04T09:47:02.191Z,92.51
2023-10-04T09:48:02.115Z,94.04
2023-10-04T09:49:02.148Z,92.71
2023-10-04T09:50:02.623Z,93.12
2023-10-04T09:51:02.057Z,92.51
2023-10-04T09:52:02.142Z,93.22
2023-10-04T09:53:02.043Z,92.30
2023-10-04T09:54:02.140Z,91.60
2023-10-04T09:55:02.029Z,90.78
2023-10-04T09:56:01.987Z,92.61
2023-10-04T09:57:01.994Z,92.51
2023-10-04T09:58:01.955Z,91.60
2023-10-04T09:59:01.983Z,91.19
2023-10-04T10:00:01.969Z,92.06
2023-10-04T10:01:02.049Z,90.37
2023-10-04T10:02:01.918Z,91.39
2023-10-04T10:03:01.981Z,91.45
2023-10-04T10:04:01.972Z,93.07
2023-10-04T10:05:01.958Z,91.75
2023-10-04T10:06:01.920Z,90.33
2023-10-04T10:07:01.882Z,90.13
2023-10-04T10:08:01.852Z,90.13
2023-10-04T10:09:01.931Z,91.25
2023-10-04T10:10:05.857Z,91.14
2023-10-04T10:11:01.821Z,91.86
2023-10-04T10:12:01.890Z,90.44
2023-10-04T10:13:01.812Z,92.42
2023-10-04T10:14:01.843Z,91.51
2023-10-04T10:15:01.870Z,89.88
2023-10-04T10:16:01.857Z,91.41
2023-10-04T10:17:01.826Z,89.88
2023-10-04T10:18:01.826Z,90.70
2023-10-04T10:19:01.779Z,90.70
2023-10-04T10:20:01.787Z,90.39
2023-10-04T10:21:01.719Z,87.24
2023-10-04T10:22:01.723Z,86.63
2023-10-04T10:23:01.698Z,85.41
2023-10-04T10:24:01.744Z,88.52
2023-10-04T10:25:01.678Z,88.01
2023-10-04T10:26:01.695Z,86.49
2023-10-04T10:27:01.680Z,86.69
2023-10-04T10:28:01.672Z,88.12
2023-10-04T10:29:01.653Z,86.08
2023-10-04T10:30:01.732Z,88.38
2023-10-04T10:31:01.696Z,89.39
2023-10-04T10:32:01.645Z,87.26
2023-10-04T10:33:01.691Z,87.37
2023-10-04T10:34:01.739Z,88.48
2023-10-04T10:35:01.626Z,87.77
2023-10-04T10:36:01.575Z,86.76
2023-10-04T10:37:01.575Z,88.07
2023-10-04T10:38:01.546Z,86.15
2023-10-04T10:39:01.542Z,84.72
2023-10-04T10:40:01.597Z,83.61
2023-10-04T10:41:01.512Z,86.76
2023-10-04T10:42:01.509Z,85.19
2023-10-04T10:43:01.484Z,84.78
2023-10-04T10:44:09.879Z,85.39
2023-10-04T10:45:01.472Z,84.28
2023-10-04T10:46:01.690Z,84.28
2023-10-04T10:47:01.513Z,86.00
2023-10-04T10:48:01.501Z,83.57
2023-10-04T10:49:01.555Z,83.17
2023-10-04T10:50:01.456Z,85.50
2023-10-04T10:51:01.410Z,83.06
2023-10-04T10:52:01.391Z,83.06
2023-10-04T10:53:01.364Z,83.98
2023-10-04T10:54:01.372Z,85.50
2023-10-04T10:55:01.352Z,83.83
2023-10-04T10:56:01.387Z,81.81
2023-10-04T10:57:01.330Z,82.01
2023-10-04T10:58:01.382Z,84.24
2023-10-04T10:59:01.312Z,84.95
2023-10-04T11:00:01.320Z,83.94
2023-10-04T11:01:01.370Z,84.04
2023-10-04T11:02:01.397Z,84.44
2023-10-04T11:03:01.377Z,83.43
2023-10-04T11:04:01.611Z,84.14
2023-10-04T11:05:01.260Z,85.36
2023-10-04T11:06:01.270Z,85.36
2023-10-04T11:07:01.234Z,83.73
2023-10-04T11:08:01.247Z,83.49
2023-10-04T11:09:01.230Z,82.89
2023-10-04T11:10:01.330Z,85.42
2023-10-04T11:11:01.294Z,84.00
2023-10-04T11:12:01.182Z,82.28
2023-10-04T11:13:01.212Z,80.86
2023-10-04T11:14:01.187Z,80.15
2023-10-04T11:15:01.142Z,84.81
2023-10-04T11:16:01.161Z,81.77
2023-10-04T11:17:01.171Z,82.58
2023-10-04T11:18:01.144Z,83.86
2023-10-04T11:19:01.160Z,82.75
2023-10-04T11:20:01.122Z,83.96
2023-10-04T11:21:01.082Z,81.83
2023-10-04T11:22:01.087Z,82.84
2023-10-04T11:23:01.065Z,84.36
2023-10-04T11:24:01.055Z,83.11
2023-10-04T11:25:01.031Z,83.21
2023-10-04T11:26:01.030Z,81.99
2023-10-04T11:27:01.010Z,80.47
2023-10-04T11:28:01.054Z,82.70
2023-10-04T11:29:00.992Z,81.59
2023-10-04T11:30:00.992Z,81.59
2023-10-04T11:31:01.044Z,84.99
2023-10-04T11:32:01.006Z,83.88
2023-10-04T11:33:01.092Z,82.76
2023-10-04T11:34:00.972Z,81.85
2023-10-04T11:35:00.935Z,80.84
2023-10-04T11:36:00.919Z,83.37
2023-10-04T11:37:00.908Z,82.42
2023-10-04T11:38:00.923Z,80.24
2023-10-04T11:39:00.875Z,80.91
2023-10-04T11:40:00.929Z,82.02
2023-10-04T11:41:00.872Z,81.11
2023-10-04T11:42:00.853Z,81.31
2023-10-04T11:43:00.921Z,81.82
2023-10-04T11:44:00.849Z,82.02
2023-10-04T11:45:00.826Z,77.77
2023-10-04T11:46:01.082Z,78.28
2023-10-04T11:47:00.825Z,80.50
2023-10-04T11:48:00.866Z,84.20
2023-10-04T11:49:00.897Z,81.17
2023-10-04T11:50:01.163Z,79.86
2023-10-04T11:51:00.747Z,80.26
2023-10-04T11:52:00.774Z,77.13
2023-10-04T11:53:00.743Z,79.15
2023-10-04T11:54:00.730Z,80.57
2023-10-04T11:55:00.826Z,76.72
2023-10-04T11:56:00.748Z,79.15
2023-10-04T11:57:00.696Z,77.09
2023-10-04T11:58:00.693Z,80.12
2023-10-04T11:59:00.683Z,78.71
2023-10-04T12:00:00.675Z,81.94
2023-10-04T12:01:00.692Z,78.91
2023-10-04T12:02:00.708Z,80.63
2023-10-04T12:03:00.717Z,79.41
2023-10-04T12:04:00.779Z,79.62
2023-10-04T12:05:00.663Z,79.21
2023-10-04T12:06:00.631Z,81.94
2023-10-04T12:07:00.668Z,76.65
2023-10-04T12:08:00.578Z,77.26
2023-10-04T12:09:00.576Z,77.56
2023-10-04T12:10:00.655Z,81.30
2023-10-04T12:11:00.547Z,78.27
2023-10-04T12:12:00.769Z,76.42
2023-10-04T12:13:00.552Z,76.01
2023-10-04T12:14:00.605Z,78.13
2023-10-04T12:15:00.545Z,77.12
2023-10-04T12:16:00.534Z,79.54
2023-10-04T12:17:00.574Z,76.28
2023-10-04T12:18:00.523Z,75.27
2023-10-04T12:19:00.479Z,79.81
2023-10-04T12:20:00.476Z,80.11
2023-10-04T12:21:00.435Z,75.87
2023-10-04T12:22:00.508Z,74.66
2023-10-04T12:23:00.409Z,77.69
2023-10-04T12:24:00.445Z,80.11
2023-10-04T12:25:00.433Z,75.27
2023-10-04T12:26:00.539Z,73.96
2023-10-04T12:27:00.382Z,77.89
2023-10-04T12:28:00.464Z,73.25
2023-10-04T12:29:00.344Z,73.65
2023-10-04T12:30:00.425Z,76.04
2023-10-04T12:31:00.367Z,75.43
2023-10-04T12:32:00.628Z,73.32
2023-10-04T12:33:00.328Z,75.34
2023-10-04T12:34:00.342Z,77.15
2023-10-04T12:35:00.312Z,77.95
2023-10-04T12:36:00.306Z,75.54
2023-10-04T12:37:00.266Z,75.30
2023-10-04T12:38:00.288Z,72.98
2023-10-04T12:39:01.116Z,77.92
2023-10-04T12:40:00.311Z,76.31
2023-10-04T12:41:00.251Z,74.59
2023-10-04T12:42:00.234Z,76.31
2023-10-04T12:43:00.222Z,73.68
2023-10-04T12:44:00.194Z,76.00
2023-10-04T12:45:00.177Z,72.47
2023-10-04T12:46:00.231Z,74.39
2023-10-04T12:47:00.291Z,72.54
2023-10-04T12:48:00.201Z,71.33
2023-10-04T12:49:00.162Z,76.07
2023-10-04T12:50:00.162Z,70.02
2023-10-04T12:51:00.112Z,75.06
2023-10-04T12:52:00.365Z,72.24
2023-10-04T12:53:00.144Z,72.85
2023-10-04T12:54:00.101Z,77.58
2023-10-04T12:55:00.113Z,73.55
2023-10-04T12:56:00.109Z,73.65
2023-10-04T12:57:00.052Z,72.54
2023-10-04T12:58:00.093Z,76.27
2023-10-04T12:59:00.058Z,71.73
2023-10-04T13:00:00.054Z,71.44
2023-10-04T13:01:00.042Z,73.05
2023-10-04T13:02:00.102Z,72.44
2023-10-04T13:03:00.051Z,72.24
2023-10-04T13:04:00.113Z,71.94
2023-10-04T13:05:00.066Z,70.93
2023-10-04T13:05:59.957Z,73.65
2023-10-04T13:06:59.963Z,70.73
2023-10-04T13:07:59.947Z,70.59
2023-10-04T13:08:59.905Z,73.52
2023-10-04T13:10:00.017Z,68.48
2023-10-04T13:10:59.934Z,71.30
2023-10-04T13:11:59.898Z,69.99
2023-10-04T13:12:59.917Z,71.00
2023-10-04T13:14:00.020Z,72.41
2023-10-04T13:14:59.848Z,69.79
2023-10-04T13:15:59.943Z,68.68
2023-10-04T13:16:59.859Z,69.29
2023-10-04T13:18:00.746Z,74.73
2023-10-04T13:18:59.851Z,74.62
2023-10-04T13:19:59.811Z,78.15
2023-10-04T13:20:59.785Z,72.91
2023-10-04T13:21:59.852Z,70.70
2023-10-04T13:22:59.786Z,70.59
2023-10-04T13:23:59.760Z,72.00
2023-10-04T13:24:59.807Z,74.62
2023-10-04T13:25:59.864Z,75.33
2023-10-04T13:26:59.728Z,69.99
2023-10-04T13:27:59.785Z,75.02
2023-10-04T13:28:59.740Z,74.93
2023-10-04T13:29:59.698Z,72.81
2023-10-04T13:30:59.739Z,74.02
2023-10-04T13:31:59.728Z,76.43
2023-10-04T13:32:59.691Z,68.98
2023-10-04T13:33:59.708Z,70.70
2023-10-04T13:34:59.684Z,71.00
2023-10-04T13:35:59.698Z,71.70
2023-10-04T13:36:59.613Z,74.42
2023-10-04T13:37:59.611Z,69.49
2023-10-04T13:38:59.606Z,67.97
2023-10-04T13:39:59.677Z,69.05
2023-10-04T13:40:59.602Z,70.06
2023-10-04T13:41:59.578Z,74.29
2023-10-04T13:42:59.584Z,70.70
2023-10-04T13:43:59.544Z,68.88
2023-10-04T13:44:59.520Z,68.98
2023-10-04T13:45:59.586Z,70.59
2023-10-04T13:46:59.580Z,69.59
2023-10-04T13:47:59.584Z,68.98
2023-10-04T13:48:59.599Z,70.66
2023-10-04T13:49:59.503Z,70.50
2023-10-04T13:50:59.470Z,70.19
2023-10-04T13:51:59.590Z,71.20
2023-10-04T13:52:59.463Z,70.66
2023-10-04T13:53:59.457Z,72.11
2023-10-04T13:54:59.434Z,72.00
2023-10-04T13:55:59.418Z,68.18
2023-10-04T13:56:59.397Z,69.69
2023-10-04T13:57:59.468Z,72.20
2023-10-04T13:58:59.386Z,72.81
2023-10-04T13:59:59.388Z,71.00
2023-10-04T14:00:59.490Z,74.02
2023-10-04T14:01:59.430Z,69.09
2023-10-04T14:02:59.434Z,68.68
2023-10-04T14:03:59.492Z,71.70
2023-10-04T14:04:59.465Z,71.40
2023-10-04T14:05:59.364Z,69.99
2023-10-04T14:06:59.345Z,68.28
2023-10-04T14:07:59.322Z,68.58
2023-10-04T14:08:59.298Z,69.59
2023-10-04T14:09:59.352Z,69.09
2023-10-04T14:10:59.292Z,66.87
2023-10-04T14:11:59.260Z,71.80
2023-10-04T14:12:59.667Z,68.28
2023-10-04T14:13:59.240Z,66.06
2023-10-04T14:14:59.216Z,71.50
2023-10-04T14:15:59.705Z,73.28
2023-10-04T14:16:59.260Z,72.37
2023-10-04T14:17:59.235Z,71.56
2023-10-04T14:18:59.215Z,67.03
2023-10-04T14:19:59.161Z,68.95
2023-10-04T14:20:59.160Z,69.85
2023-10-04T14:21:59.223Z,67.24
2023-10-04T14:22:59.194Z,72.07
2023-10-04T14:23:59.129Z,68.95
2023-10-04T14:24:59.164Z,70.16
2023-10-04T14:25:59.081Z,70.46
2023-10-04T14:26:59.099Z,69.05
2023-10-04T14:27:59.120Z,69.96
2023-10-04T14:28:59.075Z,70.56
2023-10-04T14:29:59.052Z,69.18
2023-10-04T14:30:59.105Z,65.96
2023-10-04T14:31:59.180Z,71.60
2023-10-04T14:32:59.115Z,66.97
2023-10-04T14:33:59.047Z,69.38
2023-10-04T14:34:59.030Z,69.49
2023-10-04T14:35:59.005Z,70.96
2023-10-04T14:36:59.032Z,67.24
2023-10-04T14:37:58.965Z,68.35
2023-10-04T14:38:58.988Z,67.94
2023-10-04T14:39:58.955Z,64.02
2023-10-04T14:41:00.161Z,65.83
2023-10-04T14:41:58.921Z,64.52
2023-10-04T14:42:58.964Z,71.47
2023-10-04T14:43:58.908Z,65.26
2023-10-04T14:44:58.917Z,64.86
2023-10-04T14:45:59.121Z,63.85
2023-10-04T14:46:58.919Z,67.68
2023-10-04T14:47:58.905Z,72.41
2023-10-04T14:48:58.900Z,67.07
2023-10-04T14:49:59.056Z,65.26
2023-10-04T14:51:11.867Z,62.37
2023-10-04T14:51:58.866Z,66.06
2023-10-04T14:52:58.866Z,65.66
2023-10-04T14:53:58.788Z,64.75
2023-10-04T14:54:58.805Z,62.54
2023-10-04T14:56:02.335Z,68.48
2023-10-04T14:56:58.768Z,66.56
2023-10-04T14:57:58.812Z,62.84
2023-10-04T14:58:58.766Z,66.27
2023-10-04T14:59:58.713Z,66.67
2023-10-04T15:00:58.903Z,65.36
2023-10-04T15:01:58.735Z,71.70
2023-10-04T15:02:58.808Z,63.95
2023-10-04T15:03:59.063Z,65.66
2023-10-04T15:04:58.895Z,70.02
2023-10-04T15:05:58.702Z,66.30
2023-10-04T15:06:58.681Z,64.28
2023-10-04T15:07:58.643Z,66.39
2023-10-04T15:08:58.653Z,65.09
2023-10-04T15:09:58.764Z,66.90
2023-10-04T15:10:58.630Z,69.12
2023-10-04T15:11:58.592Z,69.21
2023-10-04T15:12:58.665Z,67.50
2023-10-04T15:13:58.572Z,68.21
2023-10-04T15:14:58.594Z,72.34
2023-10-04T15:16:10.217Z,69.42
2023-10-04T15:16:58.655Z,65.89
2023-10-04T15:17:58.586Z,66.19
2023-10-04T15:18:58.569Z,66.30
2023-10-04T15:19:58.509Z,68.21
2023-10-04T15:20:58.549Z,70.83
2023-10-04T15:21:58.524Z,67.40
2023-10-04T15:22:58.491Z,72.64
2023-10-04T15:23:58.473Z,67.94
2023-10-04T15:24:58.480Z,67.94
2023-10-04T15:25:58.478Z,66.22
2023-10-04T15:26:58.502Z,69.15
2023-10-04T15:27:58.429Z,68.65
2023-10-04T15:28:58.431Z,71.37
2023-10-04T15:29:58.406Z,66.02
2023-10-04T15:30:58.425Z,69.65
2023-10-04T15:31:58.429Z,67.74
2023-10-04T15:32:58.525Z,69.85
2023-10-04T15:33:58.470Z,68.85
2023-10-04T15:34:58.374Z,69.75
2023-10-04T15:35:58.344Z,66.02
2023-10-04T15:36:58.352Z,70.36
2023-10-04T15:37:58.353Z,68.95
2023-10-04T15:38:58.313Z,66.13
2023-10-04T15:39:58.327Z,71.37
2023-10-04T15:40:58.286Z,65.82
2023-10-04T15:41:58.264Z,70.15
2023-10-04T15:42:58.336Z,68.95
2023-10-04T15:43:58.263Z,73.08
2023-10-04T15:44:58.248Z,72.17
2023-10-04T15:45:58.290Z,71.06
2023-10-04T15:46:58.274Z,67.47
2023-10-04T15:47:58.255Z,67.36
2023-10-04T15:48:58.315Z,67.67
2023-10-04T15:49:58.222Z,68.88
2023-10-04T15:50:58.188Z,67.77
2023-10-04T15:51:58.209Z,73.32
2023-10-04T15:52:58.169Z,73.01
2023-10-04T15:53:58.149Z,73.32
2023-10-04T15:54:58.220Z,70.69
2023-10-04T15:55:58.121Z,72.61
2023-10-04T15:56:58.126Z,73.92
2023-10-04T15:57:58.160Z,69.62
2023-10-04T15:58:58.100Z,66.29
2023-10-04T15:59:58.074Z,66.59
2023-10-04T16:00:58.140Z,69.11
2023-10-04T16:01:58.118Z,70.42
2023-10-04T16:02:58.083Z,72.24
2023-10-04T16:03:58.084Z,69.31
2023-10-04T16:04:58.172Z,75.07
2023-10-04T16:05:58.051Z,72.24
2023-10-04T16:06:58.071Z,70.26
2023-10-04T16:07:58.028Z,70.93
2023-10-04T16:08:58.038Z,71.77
2023-10-04T16:09:58.010Z,73.08
2023-10-04T16:10:57.979Z,69.85
2023-10-04T16:11:57.955Z,71.87
2023-10-04T16:12:58.112Z,70.46
2023-10-04T16:13:58.016Z,74.19
2023-10-04T16:14:58.891Z,70.26
2023-10-04T16:15:57.921Z,70.66
2023-10-04T16:16:58.932Z,71.91
2023-10-04T16:17:57.934Z,68.47
2023-10-04T16:18:57.934Z,74.84
2023-10-04T16:19:57.889Z,75.24
2023-10-04T16:20:57.869Z,74.93
2023-10-04T16:21:57.869Z,77.46
2023-10-04T16:22:57.906Z,71.20
2023-10-04T16:23:57.811Z,70.79
2023-10-04T16:24:57.888Z,73.22
2023-10-04T16:25:57.816Z,72.14
2023-10-04T16:26:57.840Z,73.25
2023-10-04T16:27:57.797Z,71.44
2023-10-04T16:28:57.843Z,75.68
2023-10-04T16:29:57.759Z,72.85
2023-10-04T16:30:57.815Z,70.22
2023-10-04T16:31:57.793Z,71.64
2023-10-04T16:32:57.759Z,71.03
2023-10-04T16:33:57.788Z,72.85
2023-10-04T16:34:57.822Z,72.55
2023-10-04T16:35:57.691Z,75.27
2023-10-04T16:36:57.742Z,76.59
2023-10-04T16:37:57.670Z,74.70
2023-10-04T16:38:57.678Z,74.70
2023-10-04T16:39:57.679Z,78.85
2023-10-04T16:40:57.673Z,71.37
2023-10-04T16:41:57.624Z,73.39
2023-10-04T16:42:57.666Z,72.48
2023-10-04T16:43:57.605Z,74.40
2023-10-04T16:44:57.648Z,72.28
2023-10-04T16:45:57.674Z,75.92
2023-10-04T16:46:57.626Z,76.22
2023-10-04T16:47:57.621Z,77.13
2023-10-04T16:48:57.621Z,78.95
2023-10-04T16:49:57.538Z,75.01
2023-10-04T16:50:57.606Z,78.75
2023-10-04T16:51:57.555Z,78.04
2023-10-04T16:52:57.522Z,74.13
2023-10-04T16:53:57.507Z,78.99
2023-10-04T16:54:57.523Z,74.33
2023-10-04T16:55:57.487Z,78.68
2023-10-04T16:56:57.498Z,75.55
2023-10-04T16:57:57.472Z,76.46
2023-10-04T16:58:57.685Z,80.00
2023-10-04T16:59:57.475Z,78.17
2023-10-04T17:00:57.485Z,75.65
2023-10-04T17:01:57.459Z,77.67
2023-10-04T17:02:57.474Z,75.24
2023-10-04T17:03:57.455Z,72.61
2023-10-04T17:04:57.427Z,76.05
2023-10-04T17:05:57.416Z,78.88
2023-10-04T17:06:57.446Z,76.97
2023-10-04T17:07:57.358Z,77.47
2023-10-04T17:08:57.360Z,74.77
2023-10-04T17:09:57.387Z,80.44
2023-10-04T17:10:57.343Z,79.02
2023-10-04T17:11:57.306Z,74.87
2023-10-04T17:12:57.411Z,75.58
2023-10-04T17:13:57.290Z,73.25
2023-10-04T17:14:57.304Z,74.87
2023-10-04T17:15:57.348Z,75.89
2023-10-04T17:16:57.337Z,72.55
2023-10-04T17:17:57.269Z,73.66
2023-10-04T17:18:57.314Z,73.96
2023-10-04T17:19:57.241Z,76.43
2023-10-04T17:20:57.285Z,76.32
2023-10-04T17:21:57.332Z,77.44
2023-10-04T17:22:57.421Z,79.57
2023-10-04T17:23:57.230Z,79.26